Giddings, Texas
Current Conditions -  °F | °C
As of 7:55 PM on Sunday 21 Dec 2014 (Local Time) from KGYB Reporting Station
Overcast Overcast  
Wind Chill: 55°   Ceiling: 1600
Heat Index: 55°   Visibility: 10mi
Dew Point: 51°   Wind: 6mph
Humidity: 86%   Direction: 190°S
Pressure: 29.92"   Gusts: NA
Location:  30.18°N, 96.94°W
Report Text: KGYB 220155Z AUTO 19005KT 10SM BKN016 OVC022 13/11 A2992 RMK AO2 T01280106
Loading
Personal Weather Stations






























Interactive Weather Map New forecast layout! Learn more

10-Day Weather Forecast

Advertisements
Track Severe Weather on mobile